Time;durP1;ratioP1;P1;durP2;ratioP2;P2;SDS_P1;SDS_P2;PMS_P1;PMS_P2;Temp;Humidity;BMP_temperature;BMP_pressure;BME280_temperature;BME280_humidity;BME280_pressure;Samples;Min_cycle;Max_cycle;Signal;HPM_P1;HPM_P2
2023/07/01 00:01:15;;;;;;;6.75;5.68;;;;;;;12.25;100.00;98002.19;4185443;28;20098;-73
2023/07/01 00:03:15;;;;;;;7.63;5.57;;;;;;;12.25;100.00;98006.94;4175674;28;20048;-73
2023/07/01 00:05:15;;;;;;;7.43;5.80;;;;;;;12.24;100.00;98005.31;4176601;28;20033;-73
2023/07/01 00:07:16;;;;;;;7.05;5.93;;;;;;;12.21;100.00;97998.63;4181344;28;20358;-73
2023/07/01 00:09:16;;;;;;;7.25;5.25;;;;;;;12.15;100.00;97997.44;4191852;28;20125;-73
2023/07/01 00:11:16;;;;;;;6.45;5.63;;;;;;;12.12;100.00;98001.00;4188511;28;20046;-73
2023/07/01 00:13:17;;;;;;;7.28;5.90;;;;;;;12.06;100.00;97997.06;4189923;28;20088;-73
2023/07/01 00:15:18;;;;;;;9.15;6.07;;;;;;;11.96;100.00;97997.88;4191770;28;20515;-73
2023/07/01 00:17:18;;;;;;;6.40;5.60;;;;;;;11.86;100.00;98002.25;4180992;28;20057;-73
2023/07/01 00:19:19;;;;;;;9.57;5.60;;;;;;;11.68;100.00;97991.16;4178219;28;20514;-73
2023/07/01 00:21:19;;;;;;;8.85;5.45;;;;;;;11.59;100.00;97995.53;4188902;28;20044;-73
2023/07/01 00:23:20;;;;;;;7.03;5.72;;;;;;;11.49;100.00;97991.53;4176744;28;20120;-73
2023/07/01 00:25:20;;;;;;;6.53;5.18;;;;;;;11.53;100.00;97989.56;4175946;28;20461;-73
2023/07/01 00:27:20;;;;;;;7.43;5.50;;;;;;;11.42;100.00;97988.75;4183842;28;20126;-73
2023/07/01 00:29:21;;;;;;;7.20;5.85;;;;;;;11.37;100.00;97987.19;4191371;28;20044;-73
2023/07/01 00:31:21;;;;;;;7.85;5.32;;;;;;;11.38;100.00;97980.47;4180213;28;20040;-73
2023/07/01 00:33:21;;;;;;;8.65;5.80;;;;;;;11.29;100.00;97985.59;4175027;28;20068;-73
2023/07/01 00:35:22;;;;;;;8.27;5.53;;;;;;;11.27;100.00;97981.66;4178839;28;20072;-73
2023/07/01 00:37:22;;;;;;;8.07;5.40;;;;;;;11.28;100.00;97988.78;4183609;28;20322;-73
2023/07/01 00:39:22;;;;;;;7.47;5.70;;;;;;;11.18;100.00;97980.06;4190468;28;20886;-73
2023/07/01 00:41:23;;;;;;;6.97;5.38;;;;;;;11.09;100.00;97981.63;4180444;28;20051;-73
2023/07/01 00:43:23;;;;;;;7.18;5.35;;;;;;;11.11;100.00;97982.03;4186501;28;20385;-73
2023/07/01 00:45:23;;;;;;;6.85;5.35;;;;;;;11.08;100.00;97975.28;4185429;28;20033;-73
2023/07/01 00:47:24;;;;;;;7.60;4.82;;;;;;;11.05;100.00;97975.28;4180340;28;20560;-73
2023/07/01 00:49:24;;;;;;;8.13;5.43;;;;;;;11.02;100.00;97970.56;4191549;28;20041;-73
2023/07/01 00:51:24;;;;;;;8.45;5.75;;;;;;;11.01;100.00;97969.78;4179649;28;20076;-73
2023/07/01 00:53:25;;;;;;;7.63;5.55;;;;;;;10.98;100.00;97976.06;4187633;28;20087;-73
2023/07/01 00:55:25;;;;;;;7.57;5.65;;;;;;;10.97;100.00;97971.72;4182606;28;20484;-73
2023/07/01 00:57:26;;;;;;;7.05;5.07;;;;;;;10.97;100.00;97972.50;4185253;28;20580;-73
2023/07/01 00:59:27;;;;;;;9.50;5.60;;;;;;;10.97;100.00;97968.97;4189614;28;20395;-73
2023/07/01 01:01:34;;;;;;;6.47;5.40;;;;;;;10.88;100.00;97968.53;4174068;28;20044;-73
2023/07/01 01:03:48;;;;;;;7.43;5.78;;;;;;;10.78;100.00;97967.34;4184314;28;20044;-73
2023/07/01 01:05:55;;;;;;;9.95;5.38;;;;;;;10.66;100.00;97956.63;4175403;28;20072;-73
2023/07/01 01:08:14;;;;;;;6.85;5.53;;;;;;;10.70;100.00;97960.22;4184661;28;20118;-73
2023/07/01 01:10:22;;;;;;;5.88;5.03;;;;;;;10.69;100.00;97962.19;4183652;28;20334;-73
2023/07/01 01:12:25;;;;;;;7.82;4.93;;;;;;;10.72;100.00;97968.09;4173906;28;20076;-73
2023/07/01 01:14:28;;;;;;;8.00;5.20;;;;;;;10.71;100.00;97950.72;4174759;28;20059;-73
2023/07/01 01:16:28;;;;;;;6.80;5.05;;;;;;;10.82;100.00;97953.50;4176638;28;20049;-73
2023/07/01 01:18:31;;;;;;;6.22;4.82;;;;;;;10.84;100.00;97951.94;4190547;28;20036;-73
2023/07/01 01:20:34;;;;;;;6.90;5.00;;;;;;;10.83;100.00;97944.00;4174498;28;20049;-73
2023/07/01 01:22:37;;;;;;;;;;;;;;;10.83;100.00;97949.53;4174540;28;20053;-73
2023/07/01 01:24:42;;;;;;;17.77;5.80;;;;;;;10.71;100.00;97942.41;4174910;28;19923;-73
2023/07/01 01:26:47;;;;;;;10.25;5.38;;;;;;;10.63;100.00;97949.91;4178701;28;20397;-73
2023/07/01 01:28:48;;;;;;;9.40;5.80;;;;;;;10.58;100.00;97952.25;4189627;28;20135;-73
2023/07/01 01:30:50;;;;;;;8.77;5.00;;;;;;;10.57;100.00;97948.69;4189382;28;20093;-73
2023/07/01 01:32:51;;;;;;;15.20;6.10;;;;;;;10.53;100.00;97950.66;4189274;28;20525;-73
2023/07/01 01:34:51;;;;;;;12.05;6.38;;;;;;;10.39;100.00;97956.94;4180255;28;20041;-73
2023/07/01 01:36:57;;;;;;;10.70;5.55;;;;;;;10.29;100.00;97965.19;4179605;28;20073;-73
2023/07/01 01:39:05;;;;;;;9.95;5.32;;;;;;;10.19;100.00;97963.16;4174766;28;20048;-73
2023/07/01 01:41:28;;;;;;;11.23;5.50;;;;;;;10.11;100.00;97957.59;4182714;28;20048;-73
2023/07/01 01:43:36;;;;;;;;;;;;;;;10.13;100.00;97957.97;4188877;28;20048;-73
2023/07/01 01:45:37;;;;;;;8.18;5.40;;;;;;;10.03;100.00;97964.25;4183891;28;19966;-73
2023/07/01 01:47:38;;;;;;;11.05;5.72;;;;;;;9.97;100.00;97953.94;4182662;28;20048;-73
2023/07/01 01:49:39;;;;;;;8.15;5.05;;;;;;;9.91;100.00;97959.03;4177803;28;20091;-73
2023/07/01 01:51:41;;;;;;;11.15;5.40;;;;;;;9.88;100.00;97953.50;4176168;28;20048;-73
2023/07/01 01:53:42;;;;;;;7.13;5.18;;;;;;;9.88;100.00;97943.25;4175290;28;20095;-73
2023/07/01 01:55:43;;;;;;;8.20;5.18;;;;;;;9.77;100.00;97945.16;4190383;28;20419;-73
2023/07/01 01:57:44;;;;;;;8.27;5.10;;;;;;;9.66;100.00;97936.00;4178261;28;20049;-73
2023/07/01 01:59:45;;;;;;;5.75;4.85;;;;;;;9.71;100.00;97943.94;4174611;28;20037;-73
2023/07/01 02:01:45;;;;;;;13.05;5.55;;;;;;;9.65;100.00;97939.94;4174263;28;20051;-73
2023/07/01 02:03:45;;;;;;;12.75;5.40;;;;;;;9.72;100.00;97945.50;4173791;28;20044;-73
2023/07/01 02:05:46;;;;;;;6.75;4.78;;;;;;;9.70;100.00;97936.81;4174551;28;20041;-73
2023/07/01 02:07:46;;;;;;;8.43;5.50;;;;;;;9.71;100.00;97935.66;4180398;28;20130;-73
2023/07/01 02:09:46;;;;;;;11.23;5.38;;;;;;;9.73;100.00;97936.03;4184297;28;20068;-73
2023/07/01 02:11:47;;;;;;;8.98;5.55;;;;;;;9.80;100.00;97923.06;4178124;28;20055;-73
2023/07/01 02:13:47;;;;;;;8.43;5.00;;;;;;;9.85;100.00;97924.69;4173464;28;20082;-73
2023/07/01 02:15:47;;;;;;;10.00;5.43;;;;;;;9.85;100.00;97930.22;4189448;28;20395;-72
2023/07/01 02:17:47;;;;;;;8.63;5.45;;;;;;;9.77;100.00;97926.63;4183464;28;20369;-73
2023/07/01 02:19:48;;;;;;;8.50;5.80;;;;;;;9.65;100.00;97929.69;4188141;28;20036;-73
2023/07/01 02:21:48;;;;;;;7.95;4.95;;;;;;;9.65;100.00;97920.59;4186456;28;20075;-73
2023/07/01 02:23:48;;;;;;;8.93;5.22;;;;;;;9.67;100.00;97910.75;4177922;28;20135;-73
2023/07/01 02:25:49;;;;;;;11.77;5.68;;;;;;;9.73;100.00;97916.72;4174771;28;20070;-73
2023/07/01 02:27:49;;;;;;;10.95;5.90;;;;;;;9.71;100.00;97910.78;4184737;28;20037;-73
2023/07/01 02:29:50;;;;;;;7.97;5.68;;;;;;;9.75;100.00;97914.34;4173814;28;20044;-73
2023/07/01 02:31:50;;;;;;;9.40;5.72;;;;;;;9.68;100.00;97909.59;4176231;28;20045;-73
2023/07/01 02:33:51;;;;;;;8.20;5.55;;;;;;;9.73;100.00;97908.41;4173336;28;20040;-73
2023/07/01 02:35:52;;;;;;;10.57;6.05;;;;;;;9.65;100.00;97899.31;4173638;28;20139;-73
2023/07/01 02:37:52;;;;;;;9.85;6.20;;;;;;;9.53;100.00;97903.19;4183411;28;20083;-73
2023/07/01 02:39:52;;;;;;;6.18;5.53;;;;;;;9.53;100.00;97902.41;4173784;28;20132;-73
2023/07/01 02:41:53;;;;;;;11.82;6.40;;;;;;;9.53;100.00;97899.63;4183016;28;20037;-73
2023/07/01 02:43:53;;;;;;;9.50;5.90;;;;;;;9.48;100.00;97897.22;4188104;28;20564;-73
2023/07/01 02:45:53;;;;;;;7.47;6.00;;;;;;;9.49;100.00;97893.28;4188468;28;20052;-73
2023/07/01 02:47:54;;;;;;;8.32;5.93;;;;;;;9.51;100.00;97893.69;4177442;28;20048;-73
2023/07/01 02:49:54;;;;;;;8.43;5.80;;;;;;;9.53;100.00;97896.88;4173562;28;20654;-73
2023/07/01 02:51:54;;;;;;;8.20;5.85;;;;;;;9.49;100.00;97893.28;4173908;28;20044;-72
2023/07/01 02:53:54;;;;;;;8.02;5.72;;;;;;;9.49;100.00;97905.13;4173073;28;20405;-73
2023/07/01 02:55:55;;;;;;;8.38;5.60;;;;;;;9.45;100.00;97895.25;4173382;28;20053;-73
2023/07/01 02:57:55;;;;;;;11.80;5.45;;;;;;;9.52;100.00;97895.28;4184634;28;20577;-73
2023/07/01 02:59:56;;;;;;;9.07;6.22;;;;;;;9.60;100.00;97893.34;4180106;28;20316;-73
2023/07/01 03:01:57;;;;;;;8.40;6.07;;;;;;;9.63;100.00;97889.81;4172994;28;20079;-73
2023/07/01 03:03:57;;;;;;;9.48;5.75;;;;;;;9.71;100.00;97895.00;4179856;28;20442;-73
2023/07/01 03:05:57;;;;;;;9.07;5.60;;;;;;;9.70;100.00;97887.91;4188516;28;20039;-73
2023/07/01 03:07:58;;;;;;;8.10;5.43;;;;;;;9.69;100.00;97889.06;4185598;28;20044;-73
2023/07/01 03:09:58;;;;;;;9.88;5.50;;;;;;;9.70;100.00;97887.09;4176610;28;20085;-73
2023/07/01 03:11:58;;;;;;;8.40;6.32;;;;;;;9.64;100.00;97886.66;4174726;28;20098;-73
2023/07/01 03:13:59;;;;;;;7.13;5.25;;;;;;;9.56;100.00;97885.84;4175230;28;20075;-73
2023/07/01 03:16:00;;;;;;;8.05;4.53;;;;;;;9.49;100.00;97883.03;4173177;28;20463;-73
2023/07/01 03:18:01;;;;;;;5.95;4.30;;;;;;;9.53;100.00;97878.34;4181402;28;20131;-73
2023/07/01 03:20:01;;;;;;;10.02;5.72;;;;;;;9.48;100.00;97886.97;4178306;28;20064;-73
2023/07/01 03:22:01;;;;;;;8.38;5.93;;;;;;;9.47;100.00;97887.34;4174237;28;20128;-73
2023/07/01 03:24:02;;;;;;;6.57;5.47;;;;;;;9.40;100.00;97879.81;4173120;28;20449;-73
2023/07/01 03:26:03;;;;;;;7.75;4.90;;;;;;;9.34;100.00;97888.84;4187400;28;20099;-73
2023/07/01 03:28:03;;;;;;;8.57;5.93;;;;;;;9.33;100.00;97879.75;4179972;28;20777;-73
2023/07/01 03:30:05;;;;;;;7.35;5.82;;;;;;;9.36;100.00;97876.25;4177541;28;20028;-73
2023/07/01 03:32:06;;;;;;;8.82;5.53;;;;;;;9.37;100.00;97872.31;4178449;28;20521;-73
2023/07/01 03:34:07;;;;;;;6.95;4.95;;;;;;;9.37;100.00;97871.53;4172257;28;20021;-73
2023/07/01 03:36:07;;;;;;;10.75;5.80;;;;;;;9.35;100.00;97873.84;4178177;28;20111;-73
2023/07/01 03:38:07;;;;;;;11.27;5.88;;;;;;;9.37;100.00;97875.06;4176380;28;20033;-74
2023/07/01 03:40:11;;;;;;;9.13;5.13;;;;;;;9.41;100.00;97870.34;4178939;28;20108;-73
2023/07/01 03:42:12;;;;;;;12.93;5.53;;;;;;;9.43;100.00;97869.97;4183214;28;20104;-73
2023/07/01 03:44:12;;;;;;;7.63;5.25;;;;;;;9.43;100.00;97873.53;4188184;28;20059;-73
2023/07/01 03:46:13;;;;;;;10.00;5.68;;;;;;;9.43;100.00;97875.47;4177014;28;20437;-73
2023/07/01 03:48:13;;;;;;;9.05;5.28;;;;;;;9.40;100.00;97865.22;4180391;28;20053;-73
2023/07/01 03:50:15;;;;;;;7.15;5.28;;;;;;;9.44;100.00;97866.84;4176531;28;20040;-73
2023/07/01 03:52:15;;;;;;;7.25;5.18;;;;;;;9.51;100.00;97860.53;4183988;28;20040;-73
2023/07/01 03:54:15;;;;;;;38.85;24.35;;;;;;;9.59;100.00;97870.44;4186662;28;20052;-73
2023/07/01 03:56:15;;;;;;;29.23;18.67;;;;;;;9.63;100.00;97859.44;4187588;28;20043;-73
2023/07/01 03:58:21;;;;;;;22.70;14.55;;;;;;;9.76;100.00;97857.91;4176465;28;20103;-73
2023/07/01 04:00:21;;;;;;;16.58;11.85;;;;;;;9.80;100.00;97864.25;4181917;28;20110;-73
2023/07/01 04:02:22;;;;;;;17.08;8.27;;;;;;;9.80;100.00;97862.28;4185769;28;20041;-73
2023/07/01 04:04:22;;;;;;;11.48;8.10;;;;;;;9.81;100.00;97863.06;4187058;28;20124;-73
2023/07/01 04:06:23;;;;;;;8.88;6.50;;;;;;;9.76;100.00;97864.25;4179138;28;20041;-73
2023/07/01 04:08:23;;;;;;;8.77;5.80;;;;;;;9.81;100.00;97868.59;4174678;28;20099;-73
2023/07/01 04:10:23;;;;;;;10.65;5.68;;;;;;;9.79;100.00;97866.22;4183301;28;20120;-73
2023/07/01 04:12:24;;;;;;;8.95;5.63;;;;;;;9.81;100.00;97865.84;4181993;28;20032;-73
2023/07/01 04:14:24;;;;;;;10.20;4.90;;;;;;;9.81;100.00;97871.38;4174687;28;20156;-73
2023/07/01 04:16:24;;;;;;;9.52;5.30;;;;;;;9.86;100.00;97868.25;4188172;28;20418;-73
2023/07/01 04:18:25;;;;;;;12.02;6.25;;;;;;;9.94;100.00;97855.25;4186715;28;20131;-73
2023/07/01 04:20:25;;;;;;;8.27;5.35;;;;;;;10.00;100.00;97861.97;4174554;28;20033;-73
2023/07/01 04:22:26;;;;;;;10.27;6.03;;;;;;;10.00;100.00;97854.47;4182516;28;20064;-73
2023/07/01 04:24:26;;;;;;;12.50;5.50;;;;;;;10.07;100.00;97853.69;4186027;28;20527;-73
2023/07/01 04:26:27;;;;;;;5.93;5.15;;;;;;;10.09;100.00;97846.63;4172540;28;20037;-73
2023/07/01 04:28:27;;;;;;;10.90;5.63;;;;;;;10.19;100.00;97856.13;4172334;28;20473;-73
2023/07/01 04:30:28;;;;;;;12.60;5.68;;;;;;;10.27;100.00;97854.22;4184176;28;20049;-73
2023/07/01 04:32:31;;;;;;;9.25;5.68;;;;;;;10.36;100.00;97862.91;4186002;28;20041;-73
2023/07/01 04:34:31;;;;;;;10.05;5.63;;;;;;;10.48;100.00;97851.47;4179420;28;20123;-73
2023/07/01 04:36:31;;;;;;;6.68;5.65;;;;;;;10.61;100.00;97852.69;4179283;28;20379;-73
2023/07/01 04:38:32;;;;;;;10.88;5.90;;;;;;;10.72;100.00;97852.69;4173584;28;20098;-73
2023/07/01 04:40:32;;;;;;;8.13;5.13;;;;;;;10.81;100.00;97852.31;4176275;28;20033;-73
2023/07/01 04:42:34;;;;;;;7.85;5.20;;;;;;;10.90;100.00;97849.94;4174342;28;20612;-73
2023/07/01 04:44:34;;;;;;;7.13;5.70;;;;;;;11.00;100.00;97849.13;4172923;28;20124;-73
2023/07/01 04:46:34;;;;;;;9.13;5.20;;;;;;;11.11;100.00;97847.16;4173832;28;20095;-72
2023/07/01 04:48:35;;;;;;;11.35;5.40;;;;;;;11.27;100.00;97852.28;4186103;28;20439;-73
2023/07/01 04:50:35;;;;;;;16.90;6.45;;;;;;;11.38;100.00;97843.97;4177034;28;20070;-73
2023/07/01 04:52:35;;;;;;;8.02;5.63;;;;;;;11.55;100.00;97848.66;4177009;28;20068;-73
2023/07/01 04:54:36;;;;;;;7.97;5.47;;;;;;;11.63;100.00;97849.44;4179659;28;20064;-73
2023/07/01 04:56:36;;;;;;;8.40;5.25;;;;;;;11.73;100.00;97838.31;4178513;28;20075;-73
2023/07/01 04:58:36;;;;;;;8.90;5.28;;;;;;;11.88;100.00;97835.53;4172884;28;20055;-73
2023/07/01 05:00:37;;;;;;;12.15;6.05;;;;;;;12.05;100.00;97841.00;4172975;28;20037;-73
2023/07/01 05:02:38;;;;;;;10.50;5.82;;;;;;;12.18;100.00;97832.25;4178190;28;20057;-73
2023/07/01 05:04:38;;;;;;;18.58;5.72;;;;;;;12.36;100.00;97835.69;4177980;28;20052;-72
2023/07/01 05:06:38;;;;;;;9.65;5.90;;;;;;;12.54;100.00;97825.28;4180244;28;20040;-72
2023/07/01 05:08:39;;;;;;;6.72;6.03;;;;;;;12.75;100.00;97826.31;4179517;28;20041;-73
2023/07/01 05:10:39;;;;;;;9.38;5.22;;;;;;;12.95;100.00;97824.56;4178235;28;20075;-73
2023/07/01 05:12:39;;;;;;;6.68;5.32;;;;;;;13.17;100.00;97834.31;4173689;28;20037;-73
2023/07/01 05:14:40;;;;;;;6.72;5.35;;;;;;;13.34;100.00;97815.13;4179373;28;20033;-73
2023/07/01 05:16:40;;;;;;;10.38;5.30;;;;;;;13.51;100.00;97824.47;4179272;28;20053;-72
2023/07/01 05:18:40;;;;;;;7.22;5.40;;;;;;;13.71;100.00;97822.66;4179420;28;20048;-73
2023/07/01 05:20:41;;;;;;;6.32;5.40;;;;;;;13.91;100.00;97823.63;4176605;28;20065;-73
2023/07/01 05:22:41;;;;;;;6.38;4.85;;;;;;;14.06;100.00;97816.66;4176354;28;20387;-73
2023/07/01 05:24:41;;;;;;;6.25;4.75;;;;;;;14.16;100.00;97811.38;4174606;28;20122;-72
2023/07/01 05:26:47;;;;;;;6.75;4.70;;;;;;;14.27;100.00;97807.25;4180596;28;20043;-72
2023/07/01 05:28:47;;;;;;;5.72;4.80;;;;;;;14.36;100.00;97808.72;4178042;28;20485;-73
2023/07/01 05:30:48;;;;;;;5.63;4.30;;;;;;;14.44;100.00;97812.97;4178732;28;20082;-73
2023/07/01 05:32:48;;;;;;;4.57;4.18;;;;;;;14.48;100.00;97808.97;4177702;28;20044;-73
2023/07/01 05:34:48;;;;;;;5.07;4.57;;;;;;;14.52;100.00;97808.91;4177030;28;20489;-73
2023/07/01 05:36:49;;;;;;;5.22;4.57;;;;;;;14.50;100.00;97800.19;4179897;28;20040;-73
2023/07/01 05:38:50;;;;;;;5.72;4.43;;;;;;;14.48;100.00;97795.06;4180355;28;20068;-73
2023/07/01 05:40:50;;;;;;;5.55;4.28;;;;;;;14.52;100.00;97800.56;4172433;28;20033;-73
2023/07/01 05:42:50;;;;;;;5.75;4.68;;;;;;;14.59;100.00;97798.44;4178168;28;20072;-73
2023/07/01 05:44:51;;;;;;;4.82;4.07;;;;;;;14.65;100.00;97796.00;4175265;28;20041;-73
2023/07/01 05:46:52;;;;;;;4.88;4.38;;;;;;;14.75;100.00;97786.66;4175671;28;20573;-73
2023/07/01 05:48:53;;;;;;;5.03;3.88;;;;;;;14.86;100.00;97798.41;4180291;28;20448;-73
2023/07/01 05:50:53;;;;;;;5.43;3.88;;;;;;;14.98;100.00;97783.13;4174782;28;20037;-73
2023/07/01 05:52:53;;;;;;;4.43;3.92;;;;;;;15.08;100.00;97792.50;4172317;28;20041;-73
2023/07/01 05:54:54;;;;;;;4.40;3.90;;;;;;;15.20;100.00;97788.28;4177638;28;20044;-73
2023/07/01 05:56:54;;;;;;;6.13;4.07;;;;;;;15.26;100.00;97781.81;4177832;28;20355;-73
2023/07/01 05:58:54;;;;;;;4.40;3.47;;;;;;;15.33;100.00;97790.03;4175980;28;20458;-73
2023/07/01 06:00:55;;;;;;;5.65;3.50;;;;;;;15.46;100.00;97793.75;4175265;28;20102;-73
2023/07/01 06:02:55;;;;;;;4.60;3.80;;;;;;;15.55;100.00;97793.19;4117999;28;20497;-73
2023/07/01 06:04:56;;;;;;;4.93;3.88;;;;;;;15.65;100.00;97788.69;4177174;28;20046;-73
2023/07/01 06:06:56;;;;;;;5.60;3.85;;;;;;;15.79;100.00;97793.16;4178334;28;20474;-73
2023/07/01 06:08:56;;;;;;;4.25;3.72;;;;;;;15.87;100.00;97795.38;4181931;28;20033;-73
2023/07/01 06:10:57;;;;;;;4.50;3.10;;;;;;;15.96;100.00;97781.63;4173901;28;20128;-73
2023/07/01 06:12:57;;;;;;;4.65;3.40;;;;;;;16.04;100.00;97796.22;4165855;28;20029;-73
2023/07/01 06:14:57;;;;;;;5.15;3.38;;;;;;;16.02;100.00;97788.28;4180395;28;20059;-73
2023/07/01 06:16:58;;;;;;;9.07;3.35;;;;;;;16.06;100.00;97791.03;4181198;28;20087;-73
2023/07/01 06:18:58;;;;;;;10.95;3.60;;;;;;;16.12;100.00;97780.91;4185098;28;20036;-73
2023/07/01 06:20:58;;;;;;;3.25;2.92;;;;;;;16.24;100.00;97787.84;4174465;28;20373;-73
2023/07/01 06:22:59;;;;;;;3.95;3.00;;;;;;;16.33;100.00;97781.66;4183663;28;20060;-73
2023/07/01 06:24:59;;;;;;;4.95;3.00;;;;;;;16.42;100.00;97771.47;4179683;28;20154;-73
2023/07/01 06:26:59;;;;;;;4.32;3.10;;;;;;;16.52;100.00;97772.44;4173430;28;20143;-73
2023/07/01 06:29:00;;;;;;;4.20;2.83;;;;;;;16.68;100.00;97772.44;4174390;28;20074;-73
2023/07/01 06:31:00;;;;;;;5.80;3.00;;;;;;;16.75;100.00;97777.13;4175154;28;20116;-73
2023/07/01 06:33:00;;;;;;;4.55;3.10;;;;;;;16.84;100.00;97772.47;4173288;28;20144;-73
2023/07/01 06:35:01;;;;;;;5.55;2.80;;;;;;;16.92;98.95;97775.09;4178316;28;20098;-73
2023/07/01 06:37:01;;;;;;;4.50;2.90;;;;;;;16.95;99.34;97757.47;4180329;28;20060;-73
2023/07/01 06:39:01;;;;;;;4.95;2.92;;;;;;;17.00;99.64;97770.91;4178608;28;20056;-73
2023/07/01 06:41:01;;;;;;;4.05;3.10;;;;;;;17.12;97.21;97768.16;4173999;28;20481;-73
2023/07/01 06:43:04;;;;;;;3.47;2.55;;;;;;;17.20;97.84;97776.38;4173163;28;20088;-73
2023/07/01 06:45:05;;;;;;;3.83;2.80;;;;;;;17.32;93.01;97770.88;4174281;28;20048;-73
2023/07/01 06:47:06;;;;;;;4.18;2.42;;;;;;;17.49;94.72;97770.81;4177099;28;20041;-73
2023/07/01 06:49:06;;;;;;;3.00;2.45;;;;;;;17.55;93.46;97767.06;4172775;28;20577;-73
2023/07/01 06:51:06;;;;;;;10.48;2.50;;;;;;;17.56;94.86;97770.63;4174990;28;20049;-73
2023/07/01 06:53:07;;;;;;;4.13;2.63;;;;;;;17.64;89.91;97755.22;4171591;28;20140;-74
2023/07/01 06:55:08;;;;;;;6.03;2.90;;;;;;;17.69;90.33;97758.25;4170575;28;20064;-74
2023/07/01 06:57:08;;;;;;;4.50;2.83;;;;;;;17.67;93.31;97749.50;4176388;28;20059;-73
2023/07/01 06:59:08;;;;;;;4.30;2.20;;;;;;;17.77;92.13;97749.69;4172813;28;20508;-73
2023/07/01 07:01:09;;;;;;;3.45;2.22;;;;;;;17.87;91.70;97754.97;4176869;28;20441;-74
2023/07/01 07:03:10;;;;;;;3.35;2.38;;;;;;;17.96;87.87;97757.91;4178154;28;20144;-73
2023/07/01 07:05:10;;;;;;;4.35;2.70;;;;;;;18.04;89.19;97757.66;4170505;28;20041;-73
2023/07/01 07:07:11;;;;;;;4.20;2.65;;;;;;;18.17;87.62;97762.06;4173969;28;20055;-73
2023/07/01 07:09:11;;;;;;;3.20;2.58;;;;;;;18.28;87.42;97753.34;4174893;28;20473;-73
2023/07/01 07:11:11;;;;;;;4.30;2.33;;;;;;;18.39;86.77;97739.81;4173531;28;20064;-74
2023/07/01 07:13:12;;;;;;;2.50;2.13;;;;;;;18.53;84.42;97746.94;4175027;28;20036;-73
2023/07/01 07:15:12;;;;;;;6.85;2.80;;;;;;;18.57;86.94;97753.22;4178159;28;20050;-74
2023/07/01 07:17:12;;;;;;;6.97;3.00;;;;;;;18.49;85.98;97744.28;4177791;28;20492;-74
2023/07/01 07:19:13;;;;;;;2.80;2.15;;;;;;;18.65;83.44;97739.78;4175338;28;20120;-74
2023/07/01 07:21:14;;;;;;;3.53;2.25;;;;;;;18.84;82.06;97744.38;4174850;28;20044;-73
2023/07/01 07:23:14;;;;;;;3.58;2.50;;;;;;;18.83;84.44;97737.22;4172934;28;20051;-73
2023/07/01 07:25:16;;;;;;;2.78;1.90;;;;;;;18.92;83.91;97730.91;4174116;28;20173;-73
2023/07/01 07:27:17;;;;;;;5.75;2.65;;;;;;;18.90;83.19;97731.38;4174959;28;20075;-73
2023/07/01 07:29:17;;;;;;;3.00;2.50;;;;;;;18.96;81.08;97720.38;4169407;28;20528;-74
2023/07/01 07:31:17;;;;;;;3.90;2.53;;;;;;;19.03;81.99;97706.91;4173280;28;20048;-74
2023/07/01 07:33:18;;;;;;;4.32;2.63;;;;;;;19.05;82.04;97710.03;4171845;28;20037;-74
2023/07/01 07:35:18;;;;;;;8.13;2.47;;;;;;;18.91;82.67;97704.91;4175082;28;20090;-74
2023/07/01 07:37:19;;;;;;;2.80;2.45;;;;;;;18.90;82.67;97703.34;4176540;28;20154;-74
2023/07/01 07:39:19;;;;;;;4.40;2.63;;;;;;;18.99;82.48;97697.81;4176684;28;20461;-74
2023/07/01 07:41:19;;;;;;;3.60;2.65;;;;;;;19.12;82.18;97703.38;4172869;28;20045;-74
2023/07/01 07:43:20;;;;;;;4.82;2.78;;;;;;;19.22;81.36;97699.41;4179837;28;20169;-74
2023/07/01 07:45:21;;;;;;;5.18;2.72;;;;;;;19.28;79.92;97692.00;4175252;28;20033;-74
2023/07/01 07:47:21;;;;;;;3.83;2.90;;;;;;;19.27;82.00;97698.03;4172553;28;20468;-74
2023/07/01 07:49:21;;;;;;;3.85;2.47;;;;;;;19.32;80.95;97700.28;4182346;28;20037;-74
2023/07/01 07:51:22;;;;;;;3.05;2.60;;;;;;;19.32;82.83;97697.47;4173078;28;20114;-73
2023/07/01 07:53:22;;;;;;;5.45;2.58;;;;;;;19.36;81.28;97692.50;4174141;28;20052;-74
2023/07/01 07:55:22;;;;;;;3.35;2.30;;;;;;;19.38;79.38;97692.84;4176763;28;20216;-74
2023/07/01 07:57:23;;;;;;;3.08;2.28;;;;;;;19.44;81.42;97685.38;4174583;28;20185;-74
2023/07/01 07:59:23;;;;;;;4.03;2.47;;;;;;;19.47;80.79;97695.72;4174267;28;20149;-74
2023/07/01 08:01:24;;;;;;;7.57;2.45;;;;;;;19.51;77.56;97695.56;4173196;28;20115;-74
2023/07/01 08:03:24;;;;;;;9.35;2.90;;;;;;;19.71;76.59;97692.47;4175263;28;20041;-74
2023/07/01 08:05:26;;;;;;;3.85;2.40;;;;;;;19.78;78.22;97689.41;4172848;28;20037;-74
2023/07/01 08:07:26;;;;;;;3.10;2.45;;;;;;;19.87;76.89;97690.25;4172993;28;20424;-74
2023/07/01 08:09:27;;;;;;;5.35;2.55;;;;;;;19.86;74.76;97688.69;4182370;28;20029;-74
2023/07/01 08:11:27;;;;;;;3.33;2.08;;;;;;;19.87;74.65;97681.81;4172760;28;20160;-74
2023/07/01 08:13:27;;;;;;;4.85;2.38;;;;;;;19.93;75.10;97682.75;4174818;28;20037;-74
2023/07/01 08:15:28;;;;;;;3.00;2.30;;;;;;;20.05;74.96;97694.38;4172885;28;20539;-74
2023/07/01 08:17:28;;;;;;;2.45;2.22;;;;;;;20.12;75.13;97683.66;4186262;28;20101;-74
2023/07/01 08:19:29;;;;;;;2.72;2.20;;;;;;;20.18;76.26;97676.16;4180962;28;20048;-74
2023/07/01 08:21:29;;;;;;;3.08;2.20;;;;;;;20.28;74.56;97671.41;4176363;28;20502;-74
2023/07/01 08:23:30;;;;;;;4.30;2.50;;;;;;;20.36;74.03;97681.09;4182266;28;20044;-74
2023/07/01 08:25:30;;;;;;;3.42;2.40;;;;;;;20.49;72.51;97678.19;4183307;28;20039;-74
2023/07/01 08:27:31;;;;;;;4.28;2.45;;;;;;;20.49;73.50;97681.00;4181557;28;20044;-74
2023/07/01 08:29:31;;;;;;;5.82;2.58;;;;;;;20.56;71.34;97663.84;4174876;28;20424;-74
2023/07/01 08:31:31;;;;;;;5.75;3.00;;;;;;;20.56;69.83;97663.84;4184067;28;20075;-74
2023/07/01 08:33:33;;;;;;;5.03;2.70;;;;;;;20.55;71.86;97658.69;4182723;28;20033;-74
2023/07/01 08:35:33;;;;;;;3.50;2.78;;;;;;;20.61;72.66;97663.25;4179640;28;20049;-74
2023/07/01 08:37:34;;;;;;;7.38;3.00;;;;;;;20.67;73.29;97654.97;4190635;28;20063;-74
2023/07/01 08:39:34;;;;;;;4.82;2.58;;;;;;;20.74;73.56;97661.06;4181202;28;20533;-74
2023/07/01 08:41:42;;;;;;;3.63;2.72;;;;;;;20.83;74.59;97651.88;4176549;28;20041;-74
2023/07/01 08:43:47;;;;;;;3.83;2.50;;;;;;;20.79;71.63;97650.47;4182684;28;20661;-74
2023/07/01 08:45:50;;;;;;;5.63;2.88;;;;;;;20.88;70.67;97642.03;4174226;28;20053;-74
2023/07/01 08:47:57;;;;;;;4.63;3.20;;;;;;;20.91;72.63;97650.31;4177658;28;20366;-74
2023/07/01 08:50:04;;;;;;;7.38;2.75;;;;;;;20.91;70.79;97630.63;4186222;28;20048;-74
2023/07/01 08:52:06;;;;;;;5.82;2.67;;;;;;;20.97;71.20;97644.84;4174966;28;20071;-74
2023/07/01 08:54:07;;;;;;;4.32;2.45;;;;;;;20.94;69.95;97643.00;4182294;28;20035;-74
2023/07/01 08:56:09;;;;;;;5.35;2.45;;;;;;;20.86;69.73;97631.28;4183889;28;20044;-74
2023/07/01 08:58:10;;;;;;;7.57;2.10;;;;;;;20.94;68.99;97626.91;4184503;28;20040;-74
2023/07/01 09:00:14;;;;;;;2.78;2.40;;;;;;;21.18;69.78;97620.63;4176594;28;20809;-74
2023/07/01 09:02:15;;;;;;;6.07;2.92;;;;;;;21.30;68.58;97626.13;4189406;28;20078;-74
2023/07/01 09:04:16;;;;;;;3.78;2.35;;;;;;;21.16;70.38;97617.50;4181027;28;20078;-74
2023/07/01 09:06:16;;;;;;;4.68;2.40;;;;;;;21.13;69.65;97627.66;4184252;28;20123;-74
2023/07/01 09:08:17;;;;;;;6.22;2.22;;;;;;;21.04;67.27;97627.69;4174829;28;20033;-74
2023/07/01 09:10:18;;;;;;;6.72;2.80;;;;;;;21.11;67.98;97620.97;4175460;28;20207;-74
2023/07/01 09:12:18;;;;;;;6.63;2.55;;;;;;;21.22;66.18;97624.06;4174994;28;20063;-74
2023/07/01 09:14:18;;;;;;;4.43;2.58;;;;;;;21.26;66.38;97608.56;4181814;28;20122;-74
2023/07/01 09:16:35;;;;;;;9.15;2.53;;;;;;;21.34;66.71;97609.06;4176459;28;20761;-74
2023/07/01 09:18:36;;;;;;;4.72;2.45;;;;;;;21.48;67.27;97614.06;4175234;28;20485;-74
2023/07/01 09:20:36;;;;;;;3.83;2.13;;;;;;;21.57;69.58;97604.81;4178935;28;20118;-74
2023/07/01 09:22:39;;;;;;;4.57;2.15;;;;;;;21.67;69.81;97597.88;4188907;28;20127;-74
2023/07/01 09:24:39;;;;;;;4.35;2.15;;;;;;;21.78;68.63;97615.06;4177693;28;20520;-74
2023/07/01 09:26:40;;;;;;;5.43;2.22;;;;;;;21.98;65.27;97611.69;4186191;28;20076;-74